createdAt,value
2023-02-14T00:01:33.249Z,3.95
2023-02-14T00:04:03.076Z,4.63
2023-02-14T00:06:35.304Z,4.45
2023-02-14T00:09:04.305Z,5.28
2023-02-14T00:11:32.841Z,5.10
2023-02-14T00:14:18.884Z,4.35
2023-02-14T00:16:47.055Z,5.07
2023-02-14T00:19:18.311Z,4.43
2023-02-14T00:21:47.163Z,4.68
2023-02-14T00:24:17.929Z,4.55
2023-02-14T00:26:46.385Z,4.65
2023-02-14T00:29:16.953Z,4.32
2023-02-14T00:31:46.270Z,4.32
2023-02-14T00:34:16.841Z,5.22
2023-02-14T00:36:45.843Z,4.68
2023-02-14T00:39:15.794Z,5.63
2023-02-14T00:41:44.525Z,5.32
2023-02-14T00:44:14.162Z,4.47
2023-02-14T00:46:42.545Z,4.43
2023-02-14T00:49:10.976Z,4.45
2023-02-14T00:51:41.200Z,3.72
2023-02-14T00:54:09.418Z,4.97
2023-02-14T00:56:37.897Z,4.30
2023-02-14T00:59:06.044Z,4.28
2023-02-14T01:01:34.459Z,4.10
2023-02-14T01:04:03.174Z,4.63
2023-02-14T01:06:31.345Z,4.32
2023-02-14T01:09:01.066Z,4.55
2023-02-14T01:11:30.339Z,5.07
2023-02-14T01:13:59.951Z,5.00
2023-02-14T01:16:30.932Z,4.53
2023-02-14T01:19:01.416Z,4.47
2023-02-14T01:21:32.459Z,4.85
2023-02-14T01:24:04.277Z,4.85
2023-02-14T01:26:32.799Z,5.97
2023-02-14T01:29:01.335Z,5.40
2023-02-14T01:31:31.437Z,4.55
2023-02-14T01:34:01.094Z,4.80
2023-02-14T01:36:31.228Z,4.63
2023-02-14T01:39:02.469Z,4.95
2023-02-14T01:41:32.780Z,4.60
2023-02-14T01:44:02.631Z,4.82
2023-02-14T01:46:32.914Z,5.47
2023-02-14T01:49:06.778Z,5.25
2023-02-14T01:51:38.120Z,5.35
2023-02-14T01:54:10.711Z,5.35
2023-02-14T01:56:43.947Z,6.28
2023-02-14T01:59:15.390Z,6.65
2023-02-14T02:01:44.037Z,5.70
2023-02-14T02:04:16.617Z,6.80
2023-02-14T02:06:49.125Z,6.80
2023-02-14T02:09:23.302Z,7.18
2023-02-14T02:11:51.468Z,7.18
2023-02-14T02:14:22.645Z,7.45
2023-02-14T02:17:21.663Z,5.50
2023-02-14T02:20:18.859Z,7.20
2023-02-14T02:23:25.660Z,7.28
2023-02-14T02:26:44.846Z,7.57
2023-02-14T02:30:13.023Z,7.72
2023-02-14T02:33:15.515Z,7.07
2023-02-14T02:36:11.599Z,8.02
2023-02-14T02:38:53.541Z,8.95
2023-02-14T02:41:32.213Z,8.45
2023-02-14T02:44:07.506Z,6.88
2023-02-14T02:46:50.144Z,8.30
2023-02-14T02:49:55.889Z,8.70
2023-02-14T02:52:48.447Z,8.20
2023-02-14T02:55:24.370Z,6.50
2023-02-14T02:57:53.702Z,7.18
2023-02-14T03:00:23.791Z,6.18
2023-02-14T03:03:13.972Z,5.32
2023-02-14T03:05:43.797Z,6.75
2023-02-14T03:08:13.270Z,5.85
2023-02-14T03:10:41.802Z,5.97
2023-02-14T03:13:26.588Z,6.72
2023-02-14T03:16:22.215Z,6.40
2023-02-14T03:19:29.841Z,6.53
2023-02-14T03:22:03.728Z,7.13
2023-02-14T03:24:46.273Z,7.07
2023-02-14T03:27:20.088Z,6.90
2023-02-14T03:29:57.444Z,6.53
2023-02-14T03:32:32.923Z,5.57
2023-02-14T03:35:08.466Z,7.00
2023-02-14T03:37:42.189Z,6.18
2023-02-14T03:40:16.387Z,5.72
2023-02-14T03:42:48.527Z,5.82
2023-02-14T03:45:23.676Z,4.75
2023-02-14T03:47:53.766Z,4.97
2023-02-14T03:50:22.373Z,5.47
2023-02-14T03:52:53.801Z,5.55
2023-02-14T03:55:28.140Z,5.03
2023-02-14T03:58:03.181Z,6.55
2023-02-14T04:00:33.973Z,5.88
2023-02-14T04:03:07.342Z,6.55
2023-02-14T04:05:35.975Z,6.80
2023-02-14T04:08:04.101Z,6.82
2023-02-14T04:10:34.128Z,6.65
2023-02-14T04:13:02.238Z,6.63
2023-02-14T04:15:30.553Z,6.85
2023-02-14T04:18:16.599Z,6.13
2023-02-14T04:20:44.711Z,7.03
2023-02-14T04:23:12.860Z,7.25
2023-02-14T04:25:43.501Z,7.65
2023-02-14T04:28:11.619Z,5.63
2023-02-14T04:30:39.915Z,6.68
2023-02-14T04:33:09.269Z,5.97
2023-02-14T04:35:37.728Z,5.93
2023-02-14T04:38:06.976Z,5.35
2023-02-14T04:40:35.079Z,6.05
2023-02-14T04:43:05.244Z,6.22
2023-02-14T04:45:33.355Z,7.05
2023-02-14T04:48:01.485Z,6.13
2023-02-14T04:50:29.590Z,5.47
2023-02-14T04:52:57.680Z,6.60
2023-02-14T04:55:26.254Z,5.68
2023-02-14T04:57:54.384Z,6.03
2023-02-14T05:00:24.315Z,6.90
2023-02-14T05:02:52.423Z,6.45
2023-02-14T05:05:20.584Z,6.15
2023-02-14T05:07:48.718Z,6.70
2023-02-14T05:10:16.876Z,6.20
2023-02-14T05:12:45.012Z,6.25
2023-02-14T05:15:13.453Z,6.30
2023-02-14T05:17:43.244Z,6.20
2023-02-14T05:20:11.941Z,6.60
2023-02-14T05:22:40.023Z,6.05
2023-02-14T05:25:09.097Z,5.88
2023-02-14T05:27:37.181Z,6.63
2023-02-14T05:30:05.811Z,6.50
2023-02-14T05:32:33.964Z,6.38
2023-02-14T05:35:03.520Z,5.93
2023-02-14T05:37:31.616Z,6.60
2023-02-14T05:40:00.071Z,5.70
2023-02-14T05:42:28.516Z,6.30
2023-02-14T05:44:56.600Z,7.10
2023-02-14T05:47:24.737Z,8.70
2023-02-14T05:49:52.849Z,9.23
2023-02-14T05:52:22.308Z,7.97
2023-02-14T05:54:50.400Z,7.47
2023-02-14T05:57:18.729Z,8.70
2023-02-14T05:59:46.787Z,7.97
2023-02-14T06:02:16.080Z,6.78
2023-02-14T06:04:44.244Z,7.72
2023-02-14T06:07:12.377Z,6.95
2023-02-14T06:09:42.408Z,6.30
2023-02-14T06:12:10.567Z,6.03
2023-02-14T06:14:41.423Z,6.57
2023-02-14T06:17:09.964Z,7.13
2023-02-14T06:19:38.215Z,6.82
2023-02-14T06:22:06.834Z,6.65
2023-02-14T06:24:34.963Z,6.25
2023-02-14T06:27:04.488Z,6.15
2023-02-14T06:29:32.801Z,6.00
2023-02-14T06:32:05.824Z,5.75
2023-02-14T06:34:34.761Z,6.72
2023-02-14T06:37:03.202Z,5.38
2023-02-14T06:39:31.433Z,5.53
2023-02-14T06:41:59.853Z,6.47
2023-02-14T06:44:29.422Z,5.90
2023-02-14T06:46:57.958Z,5.90
2023-02-14T06:49:26.414Z,5.70
2023-02-14T06:51:54.538Z,5.78
2023-02-14T06:54:22.679Z,5.28
2023-02-14T06:56:51.146Z,5.53
2023-02-14T06:59:19.709Z,5.50
2023-02-14T07:01:49.287Z,4.95
2023-02-14T07:04:18.634Z,5.35
2023-02-14T07:06:46.767Z,5.63
2023-02-14T07:09:17.831Z,5.18
2023-02-14T07:11:46.317Z,5.05
2023-02-14T07:14:14.953Z,5.32
2023-02-14T07:16:43.268Z,5.13
2023-02-14T07:19:12.784Z,4.68
2023-02-14T07:21:40.962Z,3.92
2023-02-14T07:24:09.553Z,4.63
2023-02-14T07:26:37.648Z,5.07
2023-02-14T07:29:06.024Z,5.45
2023-02-14T07:31:34.237Z,4.85
2023-02-14T07:34:02.834Z,5.07
2023-02-14T07:36:32.308Z,5.43
2023-02-14T07:39:00.700Z,6.70
2023-02-14T07:41:28.827Z,7.13
2023-02-14T07:43:56.960Z,6.93
2023-02-14T07:46:25.481Z,6.85
2023-02-14T07:48:53.920Z,6.75
2023-02-14T07:51:22.041Z,8.02
2023-02-14T07:53:51.502Z,7.40
2023-02-14T07:56:19.964Z,7.68
2023-02-14T07:58:49.786Z,8.45
2023-02-14T08:01:18.186Z,8.88
2023-02-14T08:03:49.803Z,9.68
2023-02-14T08:06:18.592Z,9.98
2023-02-14T08:08:47.186Z,8.98
2023-02-14T08:11:37.647Z,9.73
2023-02-14T08:14:06.356Z,8.65
2023-02-14T08:16:35.387Z,8.25
2023-02-14T08:19:03.899Z,8.20
2023-02-14T08:21:32.730Z,8.43
2023-02-14T08:24:00.838Z,8.50
2023-02-14T08:26:30.393Z,8.63
2023-02-14T08:28:58.848Z,8.63
2023-02-14T08:31:35.699Z,7.40
2023-02-14T08:34:04.981Z,7.75
2023-02-14T08:36:33.425Z,7.97
2023-02-14T08:39:01.694Z,7.25
2023-02-14T08:41:31.722Z,6.07
2023-02-14T08:43:59.879Z,6.90
2023-02-14T08:46:28.167Z,7.53
2023-02-14T08:48:57.173Z,7.82
2023-02-14T08:51:25.922Z,6.70
2023-02-14T08:53:55.167Z,6.07
2023-02-14T08:56:24.021Z,6.60
2023-02-14T08:58:56.035Z,7.28
2023-02-14T09:01:24.327Z,6.60
2023-02-14T09:03:52.607Z,5.75
2023-02-14T09:06:20.931Z,7.13
2023-02-14T09:08:49.192Z,6.63
2023-02-14T09:11:21.191Z,7.28
2023-02-14T09:13:50.053Z,6.68
2023-02-14T09:16:21.747Z,6.75
2023-02-14T09:18:51.103Z,6.15
2023-02-14T09:21:21.504Z,6.63
2023-02-14T09:23:49.705Z,5.80
2023-02-14T09:26:19.220Z,6.35
2023-02-14T09:28:47.990Z,6.50
2023-02-14T09:31:18.770Z,6.20
2023-02-14T09:33:50.241Z,6.13
2023-02-14T09:36:21.375Z,6.38
2023-02-14T09:38:49.541Z,6.15
2023-02-14T09:41:50.498Z,5.45
2023-02-14T09:44:25.337Z,5.90
2023-02-14T09:46:57.922Z,6.13
2023-02-14T09:49:33.791Z,5.28
2023-02-14T09:52:04.847Z,5.40
2023-02-14T09:54:35.944Z,5.60
2023-02-14T09:57:12.666Z,5.55
2023-02-14T09:59:47.556Z,5.78
2023-02-14T10:02:37.228Z,6.03
2023-02-14T10:05:14.707Z,5.50
2023-02-14T10:08:04.200Z,4.72
2023-02-14T10:10:39.589Z,5.45
2023-02-14T10:13:17.167Z,5.30
2023-02-14T10:15:49.395Z,5.25
2023-02-14T10:18:22.472Z,4.00
2023-02-14T10:20:55.958Z,4.88
2023-02-14T10:23:30.732Z,4.63
2023-02-14T10:26:02.842Z,5.40
2023-02-14T10:28:36.302Z,5.43
2023-02-14T10:31:24.023Z,5.13
2023-02-14T10:33:57.684Z,4.20
2023-02-14T10:36:40.599Z,5.07
2023-02-14T10:39:23.686Z,4.50
2023-02-14T10:41:57.692Z,4.93
2023-02-14T10:44:39.080Z,5.10
2023-02-14T10:47:16.736Z,4.93
2023-02-14T10:49:51.251Z,4.90
2023-02-14T10:52:27.940Z,4.85
2023-02-14T10:54:58.185Z,4.50
2023-02-14T10:57:30.305Z,4.88
2023-02-14T11:00:01.903Z,3.63
2023-02-14T11:02:35.094Z,4.93
2023-02-14T11:05:05.511Z,4.10
2023-02-14T11:07:35.134Z,5.35
2023-02-14T11:10:03.622Z,4.43
2023-02-14T11:12:37.535Z,5.03
2023-02-14T11:15:20.730Z,4.25
2023-02-14T11:17:49.653Z,4.97
2023-02-14T11:20:28.167Z,5.57
2023-02-14T11:22:58.154Z,6.57
2023-02-14T11:25:29.453Z,5.32
2023-02-14T11:28:02.187Z,6.85
2023-02-14T11:30:35.371Z,6.03
2023-02-14T11:33:04.747Z,6.38
2023-02-14T11:35:34.958Z,6.45
2023-02-14T11:38:06.987Z,7.30
2023-02-14T11:40:38.225Z,8.57
2023-02-14T11:43:21.465Z,7.03
2023-02-14T11:45:51.340Z,7.78
2023-02-14T11:48:36.722Z,8.50
2023-02-14T11:51:09.352Z,7.80
2023-02-14T11:53:46.071Z,8.48
2023-02-14T11:56:15.149Z,8.75
2023-02-14T11:58:49.723Z,7.60
2023-02-14T12:01:25.447Z,8.80
2023-02-14T12:03:56.213Z,8.15
2023-02-14T12:06:26.937Z,8.63
2023-02-14T12:09:12.989Z,8.63
2023-02-14T12:11:41.385Z,7.75
2023-02-14T12:14:22.412Z,9.07
2023-02-14T12:16:57.408Z,9.00
2023-02-14T12:19:37.165Z,8.68
2023-02-14T12:22:07.746Z,8.00
2023-02-14T12:24:45.200Z,9.38
2023-02-14T12:27:21.741Z,9.23
2023-02-14T12:29:53.922Z,8.88
2023-02-14T12:32:25.640Z,7.63
2023-02-14T12:35:01.941Z,7.78
2023-02-14T12:37:48.819Z,8.52
2023-02-14T12:40:27.729Z,9.25
2023-02-14T12:43:40.353Z,9.38
2023-02-14T12:46:22.932Z,10.68
2023-02-14T12:49:13.542Z,9.80
2023-02-14T12:51:50.486Z,11.60
2023-02-14T12:54:36.325Z,10.50
2023-02-14T12:57:18.948Z,12.48
2023-02-14T12:59:55.861Z,12.65
2023-02-14T13:02:56.127Z,12.20
2023-02-14T13:05:33.126Z,12.30
2023-02-14T13:08:16.280Z,12.40
2023-02-14T13:10:55.102Z,12.00
2023-02-14T13:13:34.303Z,12.88
2023-02-14T13:16:15.250Z,14.70
2023-02-14T13:18:50.815Z,14.13
2023-02-14T13:21:23.838Z,13.73
2023-02-14T13:23:55.328Z,17.08
2023-02-14T13:26:28.958Z,16.58
2023-02-14T13:29:04.764Z,16.63
2023-02-14T13:31:33.408Z,14.55
2023-02-14T13:34:07.713Z,15.88
2023-02-14T13:36:37.139Z,15.63
2023-02-14T13:39:06.547Z,16.33
2023-02-14T13:41:35.903Z,16.63
2023-02-14T13:44:06.352Z,18.50
2023-02-14T13:46:52.440Z,17.13
2023-02-14T13:49:32.764Z,19.58
2023-02-14T13:52:03.981Z,17.17
2023-02-14T13:54:46.751Z,16.20
2023-02-14T13:57:31.775Z,18.90
2023-02-14T14:00:39.383Z,15.32
2023-02-14T14:03:08.812Z,16.98
2023-02-14T14:06:05.030Z,15.32
2023-02-14T14:08:47.884Z,13.93
2023-02-14T14:12:01.900Z,15.00
2023-02-14T14:14:38.237Z,15.10
2023-02-14T14:17:21.870Z,15.27
2023-02-14T14:19:50.714Z,17.50
2023-02-14T14:22:19.994Z,17.45
2023-02-14T14:25:04.153Z,16.65
2023-02-14T14:27:35.680Z,16.95
2023-02-14T14:30:05.981Z,15.60
2023-02-14T14:32:37.837Z,16.98
2023-02-14T14:35:08.276Z,16.35
2023-02-14T14:37:47.136Z,15.07
2023-02-14T14:40:25.292Z,14.25
2023-02-14T14:42:54.684Z,17.17
2023-02-14T14:45:25.793Z,17.95
2023-02-14T14:47:57.775Z,17.77
2023-02-14T14:50:28.215Z,15.52
2023-02-14T14:52:58.667Z,18.75
2023-02-14T14:55:30.739Z,14.73
2023-02-14T14:58:00.609Z,15.38
2023-02-14T15:00:30.455Z,17.75
2023-02-14T15:03:06.867Z,13.80
2023-02-14T15:05:37.943Z,15.68
2023-02-14T15:08:17.616Z,17.13
2023-02-14T15:10:50.757Z,22.70
2023-02-14T15:13:36.803Z,21.27
2023-02-14T15:16:05.057Z,17.23
2023-02-14T15:18:34.657Z,15.27
2023-02-14T15:21:04.639Z,18.27
2023-02-14T15:23:33.038Z,18.77
2023-02-14T15:26:02.367Z,14.88
2023-02-14T15:28:32.554Z,17.13
2023-02-14T15:31:03.178Z,16.35
2023-02-14T15:33:33.212Z,17.17
2023-02-14T15:36:07.089Z,15.95
2023-02-14T15:38:41.343Z,17.98
2023-02-14T15:41:10.011Z,19.15
2023-02-14T15:43:39.430Z,15.70
2023-02-14T15:46:21.277Z,17.17
2023-02-14T15:48:49.902Z,16.95
2023-02-14T15:51:22.832Z,17.02
2023-02-14T15:53:55.141Z,17.05
2023-02-14T15:56:26.776Z,16.88
2023-02-14T15:59:00.712Z,17.30
2023-02-14T16:01:29.890Z,16.40
2023-02-14T16:04:00.919Z,17.13
2023-02-14T16:06:36.426Z,16.67
2023-02-14T16:09:06.830Z,15.27
2023-02-14T16:11:37.210Z,16.10
2023-02-14T16:14:32.032Z,17.10
2023-02-14T16:17:03.066Z,16.08
2023-02-14T16:19:41.183Z,15.48
2023-02-14T16:22:13.503Z,15.80
2023-02-14T16:24:42.121Z,17.13
2023-02-14T16:27:13.358Z,16.73
2023-02-14T16:29:41.641Z,17.05
2023-02-14T16:32:18.355Z,18.25
2023-02-14T16:34:48.336Z,18.25
2023-02-14T16:37:24.649Z,16.08
2023-02-14T16:39:56.617Z,15.85
2023-02-14T16:42:25.676Z,18.17
2023-02-14T16:44:54.123Z,18.35
2023-02-14T16:47:22.629Z,18.45
2023-02-14T16:49:53.061Z,19.15
2023-02-14T16:52:26.773Z,18.90
2023-02-14T16:54:55.164Z,21.40
2023-02-14T16:57:28.191Z,20.55
2023-02-14T16:59:57.259Z,24.45
2023-02-14T17:02:28.785Z,30.98
2023-02-14T17:04:57.621Z,38.13
2023-02-14T17:07:30.784Z,39.83
2023-02-14T17:10:03.091Z,39.33
2023-02-14T17:12:36.280Z,28.45
2023-02-14T17:15:09.047Z,25.98
2023-02-14T17:17:38.817Z,24.15
2023-02-14T17:20:09.293Z,19.80
2023-02-14T17:22:39.523Z,19.27
2023-02-14T17:25:08.185Z,20.25
2023-02-14T17:27:37.144Z,19.65
2023-02-14T17:30:06.416Z,19.23
2023-02-14T17:32:36.527Z,19.88
2023-02-14T17:35:06.126Z,18.42
2023-02-14T17:37:34.651Z,17.70
2023-02-14T17:40:05.964Z,22.02
2023-02-14T17:42:34.712Z,34.95
2023-02-14T17:45:04.522Z,26.52
2023-02-14T17:47:33.077Z,34.00
2023-02-14T17:50:01.702Z,31.95
2023-02-14T17:52:30.433Z,28.10
2023-02-14T17:54:58.775Z,25.98
2023-02-14T17:57:28.444Z,20.85
2023-02-14T17:59:58.106Z,18.55
2023-02-14T18:02:26.691Z,16.45
2023-02-14T18:04:55.101Z,16.00
2023-02-14T18:07:24.117Z,18.23
2023-02-14T18:09:52.367Z,16.25
2023-02-14T18:12:20.560Z,14.02
2023-02-14T18:14:50.626Z,14.80
2023-02-14T18:17:18.777Z,15.80
2023-02-14T18:19:47.204Z,13.77
2023-02-14T18:22:15.865Z,14.88
2023-02-14T18:24:44.024Z,14.85
2023-02-14T18:27:13.890Z,15.15
2023-02-14T18:29:42.022Z,15.15
2023-02-14T18:32:11.662Z,15.38
2023-02-14T18:34:40.124Z,14.02
2023-02-14T18:37:08.277Z,14.95
2023-02-14T18:39:36.665Z,14.05
2023-02-14T18:42:05.407Z,14.18
2023-02-14T18:44:33.613Z,13.85
2023-02-14T18:47:02.763Z,15.63
2023-02-14T18:49:32.800Z,15.65
2023-02-14T18:52:01.904Z,16.77
2023-02-14T18:54:30.043Z,17.30
2023-02-14T18:56:58.180Z,17.23
2023-02-14T18:59:26.310Z,17.33
2023-02-14T19:01:54.549Z,18.67
2023-02-14T19:04:22.979Z,18.23
2023-02-14T19:06:52.545Z,13.88
2023-02-14T19:09:21.028Z,14.18
2023-02-14T19:11:49.148Z,14.15
2023-02-14T19:14:20.124Z,14.02
2023-02-14T19:16:50.551Z,13.35
2023-02-14T19:19:19.781Z,12.80
2023-02-14T19:21:48.481Z,12.00
2023-02-14T19:24:19.847Z,13.98
2023-02-14T19:26:48.419Z,13.70
2023-02-14T19:29:19.225Z,12.32
2023-02-14T19:31:49.628Z,12.82
2023-02-14T19:34:19.656Z,14.25
2023-02-14T19:36:49.037Z,16.70
2023-02-14T19:39:19.123Z,14.60
2023-02-14T19:41:48.121Z,12.68
2023-02-14T19:44:18.641Z,13.02
2023-02-14T19:46:48.466Z,12.43
2023-02-14T19:49:18.752Z,12.43
2023-02-14T19:51:48.452Z,12.35
2023-02-14T19:54:18.609Z,11.98
2023-02-14T19:56:47.737Z,12.52
2023-02-14T19:59:20.137Z,13.75
2023-02-14T20:01:50.057Z,13.77
2023-02-14T20:04:20.459Z,13.18
2023-02-14T20:06:49.580Z,12.52
2023-02-14T20:09:22.046Z,10.88
2023-02-14T20:11:52.014Z,11.80
2023-02-14T20:14:22.400Z,12.10
2023-02-14T20:16:51.657Z,11.13
2023-02-14T20:19:21.891Z,12.27
2023-02-14T20:21:52.115Z,11.52
2023-02-14T20:24:23.543Z,15.85
2023-02-14T20:26:53.186Z,17.85
2023-02-14T20:29:23.232Z,17.02
2023-02-14T20:31:53.258Z,16.77
2023-02-14T20:34:22.673Z,14.90
2023-02-14T20:36:59.596Z,13.77
2023-02-14T20:39:33.650Z,11.63
2023-02-14T20:42:02.799Z,13.20
2023-02-14T20:44:32.285Z,12.75
2023-02-14T20:47:00.533Z,13.18
2023-02-14T20:49:31.440Z,13.55
2023-02-14T20:51:59.930Z,11.88
2023-02-14T20:54:30.707Z,12.07
2023-02-14T20:56:59.003Z,12.48
2023-02-14T20:59:29.113Z,11.02
2023-02-14T21:01:58.972Z,12.80
2023-02-14T21:04:28.035Z,12.45
2023-02-14T21:06:57.837Z,14.60
2023-02-14T21:09:26.099Z,11.82
2023-02-14T21:11:55.815Z,13.30
2023-02-14T21:14:24.270Z,12.45
2023-02-14T21:16:52.459Z,11.45
2023-02-14T21:19:23.535Z,13.73
2023-02-14T21:21:51.661Z,12.20
2023-02-14T21:24:20.297Z,14.18
2023-02-14T21:26:48.432Z,14.70
2023-02-14T21:29:18.314Z,12.27
2023-02-14T21:31:46.860Z,12.85
2023-02-14T21:34:17.434Z,11.48
2023-02-14T21:36:45.548Z,13.38
2023-02-14T21:39:14.220Z,11.13
2023-02-14T21:41:42.374Z,10.10
2023-02-14T21:44:30.642Z,11.63
2023-02-14T21:47:00.509Z,11.20
2023-02-14T21:49:46.613Z,13.07
2023-02-14T21:52:14.791Z,12.55
2023-02-14T21:54:43.008Z,10.85
2023-02-14T21:57:11.441Z,11.68
2023-02-14T21:59:40.659Z,12.07
2023-02-14T22:02:12.386Z,12.20
2023-02-14T22:04:40.524Z,12.27
2023-02-14T22:07:08.672Z,11.70
2023-02-14T22:09:37.010Z,10.70
2023-02-14T22:12:05.727Z,11.02
2023-02-14T22:14:33.985Z,9.55
2023-02-14T22:17:02.103Z,11.73
2023-02-14T22:19:31.658Z,11.65
2023-02-14T22:21:59.794Z,10.85
2023-02-14T22:24:28.315Z,12.23
2023-02-14T22:26:56.815Z,11.52
2023-02-14T22:29:24.997Z,11.15
2023-02-14T22:31:53.352Z,12.23
2023-02-14T22:34:21.554Z,13.57
2023-02-14T22:36:51.578Z,12.85
2023-02-14T22:39:19.966Z,12.45
2023-02-14T22:41:48.194Z,13.90
2023-02-14T22:44:16.400Z,13.48
2023-02-14T22:46:44.579Z,13.02
2023-02-14T22:49:13.319Z,15.35
2023-02-14T22:51:43.432Z,15.25
2023-02-14T22:54:14.942Z,15.77
2023-02-14T22:56:45.237Z,12.30
2023-02-14T22:59:16.798Z,10.20
2023-02-14T23:01:45.459Z,9.00
2023-02-14T23:04:14.392Z,9.75
2023-02-14T23:06:42.859Z,9.63
2023-02-14T23:09:13.354Z,7.55
2023-02-14T23:11:43.725Z,8.60
2023-02-14T23:14:30.937Z,7.95
2023-02-14T23:17:17.552Z,8.25
2023-02-14T23:20:04.764Z,9.27
2023-02-14T23:22:34.532Z,7.35
2023-02-14T23:25:06.033Z,10.02
2023-02-14T23:27:36.127Z,8.00
2023-02-14T23:30:05.799Z,7.50
2023-02-14T23:32:34.277Z,9.07
2023-02-14T23:35:02.407Z,9.13
2023-02-14T23:37:30.635Z,9.27
2023-02-14T23:39:58.985Z,10.10
2023-02-14T23:42:28.619Z,7.97
2023-02-14T23:45:16.832Z,9.82
2023-02-14T23:47:45.159Z,11.30
2023-02-14T23:50:13.417Z,10.85
2023-02-14T23:52:42.040Z,9.35
2023-02-14T23:55:10.366Z,10.77
2023-02-14T23:57:40.145Z,9.43
